Aérodrome :
LOGIN :

S'inscrire | Disclaimer

   EN    FR    IT 

 










Légende :    VFR   VFR Marginal   IFR   IFR Intensif   IFR Très Intensif
Visi : 
Plafond : 
>= 8 km
>= 3000ft
5 à 8 km
1000 à 3000 ft
1500m à 5 km
500 à 1000 ft
800 à 1500m
200 à 500 ft
< 800m
< 200 ft
Symboles :   Orages  Brouillard  Fortes neiges  Fortes précipitations  Vent > 20 kt
SIGMETs :   Divers  Orages  Givrage  Turbulence  Onde Orograph.  Cendres Volcan.







- Altitude de l'aérodrome : 14 ft
- Code IATA : BRE


EDDW - Bremen Neuenland

DERNIER METAR :
  • 200620Z 21009KT 9999 FEW041 SCT300 18/13 Q1016 NOSIG

METARs EXPIRÉS :
  • 200550Z 21008KT 9999 FEW043 SCT300 17/13 Q1016 NOSIG
  • 200520Z 21008KT 9999 SCT041 SCT300 17/13 Q1016 NOSIG
  • 200450Z 21008KT 9999 FEW039 17/13 Q1016 NOSIG
  • 200420Z 21009KT CAVOK 17/13 Q1015 NOSIG
  • 200350Z 21008KT CAVOK 17/13 Q1015 NOSIG

TAF TAF EDDW
Valide du 20 à 06h jusqu'au 21 à 06h UTC


200500Z 2006/2106 21007KT CAVOK
BECMG 2007/2009 23012KT
TEMPO 2009/2016 23015G25KT
BECMG 2016/2019 17005KT
BECMG 2100/2103 18010KT
BECMG 2104/2106 21015G25KT
Pas de NOTAMs connus pour ce terrain.



MET'MAP, la Météo Aéronautique d'un coup d'oeil ! - Copyright ORBIFLY Décembre 2007 - Disclaimer

ORBIFLY MET'MAP TEAM :

Programmation & Développement : Alexandra Zaïnal
Conception & Développement : Baudouin d'Aumeries
Co-Programmation & Développement : Marc-Olivier Méhu
Soutien technique & logistique : Manuel Goepfert

Contact : metmap@orbifly.com




SOURCES & CREDITS :

   NOAA